Time;durP1;ratioP1;P1;durP2;ratioP2;P2;SDS_P1;SDS_P2;PMS_P1;PMS_P2;Temp;Humidity;BMP_temperature;BMP_pressure;BME280_temperature;BME280_humidity;BME280_pressure;Samples;Min_cycle;Max_cycle;Signal;HPM_P1;HPM_P2
2022/06/20 00:01:56;;;;;;;9.80;4.70;;;18.20;99.90;;;18.66;65.31;101343.22;5115344;28;20138;-59
2022/06/20 00:04:26;;;;;;;11.55;4.18;;;18.20;99.90;;;18.67;65.19;101350.34;5115324;28;20040;-59
2022/06/20 00:06:54;;;;;;;11.47;4.53;;;18.20;99.90;;;18.65;65.01;101348.63;5115227;28;20130;-59
2022/06/20 00:09:22;;;;;;;10.40;4.70;;;18.20;99.90;;;18.62;65.23;101335.31;5115048;28;20040;-59
2022/06/20 00:11:52;;;;;;;11.45;4.60;;;18.20;99.90;;;18.64;65.65;101347.72;5115323;28;20051;-59
2022/06/20 00:14:22;;;;;;;8.95;4.22;;;18.20;99.90;;;18.69;65.94;101366.38;5115299;28;20050;-60
2022/06/20 00:16:51;;;;;;;10.90;4.30;;;18.20;99.90;;;18.71;65.80;101369.88;5115246;28;20044;-59
2022/06/20 00:19:19;;;;;;;11.80;4.25;;;18.30;99.90;;;18.70;65.63;101371.69;5115366;28;20343;-59
2022/06/20 00:21:49;;;;;;;10.65;4.30;;;18.20;99.90;;;18.65;65.97;101389.72;5115100;28;20130;-59
2022/06/20 00:24:17;;;;;;;12.57;5.05;;;18.20;99.90;;;18.56;66.23;101386.41;5114801;28;20043;-59
2022/06/20 00:26:45;;;;;;;12.50;4.25;;;18.10;99.90;;;18.62;66.27;101380.88;5114670;28;20064;-59
2022/06/20 00:29:14;;;;;;;13.35;4.70;;;18.20;99.90;;;18.57;66.28;101372.97;5114996;28;20125;-59
2022/06/20 00:31:42;;;;;;;16.80;5.07;;;18.20;99.90;;;18.56;66.54;101389.09;5114446;28;20092;-59
2022/06/20 00:34:13;;;;;;;15.82;4.47;;;18.10;99.90;;;18.58;66.24;101392.63;5114581;28;20062;-59
2022/06/20 00:36:42;;;;;;;14.65;4.60;;;18.10;99.90;;;18.52;66.30;101393.69;5115187;28;20043;-59
2022/06/20 00:39:12;;;;;;;12.27;4.78;;;18.10;99.90;;;18.45;66.40;101386.72;5114427;28;20071;-59
2022/06/20 00:41:41;;;;;;;13.55;5.28;;;18.00;99.90;;;18.42;66.55;101381.44;5114677;28;20112;-59
2022/06/20 00:44:14;;;;;;;13.68;5.03;;;18.00;99.90;;;18.47;66.68;101378.63;5095987;28;20040;-59
2022/06/20 00:46:51;;;;;;;12.73;4.65;;;18.00;99.90;;;18.52;67.17;101377.59;5114384;28;20092;-59
2022/06/20 00:49:27;;;;;;;11.60;4.30;;;18.00;99.90;;;18.49;67.39;101385.69;5114621;28;20036;-59
2022/06/20 00:52:03;;;;;;;17.05;5.20;;;18.00;99.90;;;18.45;67.33;101393.84;5114579;28;20067;-59
2022/06/20 00:54:38;;;;;;;16.15;5.00;;;18.00;99.90;;;18.44;67.30;101402.84;5114518;28;20047;-59
2022/06/20 00:57:13;;;;;;;11.82;4.88;;;18.00;99.90;;;18.41;67.39;101409.13;5114257;28;20067;-59
2022/06/20 00:59:48;;;;;;;13.93;4.70;;;17.90;99.90;;;18.48;66.88;101413.44;5114147;28;20096;-59
2022/06/20 01:02:26;;;;;;;12.80;5.05;;;18.00;99.90;;;18.33;66.89;101407.59;5114690;28;20036;-59
2022/06/20 01:04:58;;;;;;;12.77;4.75;;;17.90;99.90;;;18.31;67.84;101421.00;5113370;28;20051;-59
2022/06/20 01:07:34;;;;;;;13.60;5.07;;;17.90;99.90;;;18.27;67.34;101437.22;5113980;28;20390;-59
2022/06/20 01:10:06;;;;;;;12.90;5.38;;;17.80;99.90;;;18.21;67.70;101448.09;5114407;28;20108;-59
2022/06/20 01:12:46;;;;;;;13.20;4.97;;;17.70;99.90;;;18.17;67.06;101449.09;5113695;28;20071;-59
2022/06/20 01:15:24;;;;;;;13.60;4.15;;;17.70;99.90;;;18.11;67.17;101447.44;5113817;28;20349;-59
2022/06/20 01:17:54;;;;;;;13.93;4.72;;;17.70;99.90;;;18.11;67.82;101459.94;5095349;28;20055;-59
2022/06/20 01:20:26;;;;;;;9.02;4.90;;;17.60;99.90;;;18.19;68.43;101460.63;5096012;28;20582;-59
2022/06/20 01:23:09;;;;;;;12.40;5.07;;;17.70;99.90;;;18.23;68.73;101460.53;5113504;28;20047;-59
2022/06/20 01:26:13;;;;;;;11.80;5.10;;;17.70;99.90;;;18.21;68.22;101426.66;5113618;28;20039;-59
2022/06/20 01:28:48;;;;;;;11.20;4.65;;;17.80;99.90;;;18.31;68.08;101446.94;5113509;28;20116;-59
2022/06/20 01:31:20;;;;;;;14.65;4.82;;;17.80;99.90;;;18.37;67.88;101434.22;5113618;28;20063;-59
2022/06/20 01:33:50;;;;;;;11.55;4.88;;;17.90;99.90;;;18.05;67.38;101383.34;5113374;28;20523;-59
2022/06/20 01:39:08;;;;;;;11.70;4.10;;;17.90;99.90;;;18.49;66.57;101430.38;5113290;28;20091;-59
2022/06/20 01:44:25;;;;;;;13.60;4.47;;;18.00;99.90;;;18.54;66.00;101418.59;5113276;28;20444;-59
2022/06/20 01:46:53;;;;;;;11.50;4.35;;;18.10;99.90;;;18.48;66.19;101412.56;5113233;28;20199;-59
2022/06/20 01:49:25;;;;;;;10.32;4.25;;;18.10;99.90;;;18.53;66.15;101411.50;5113120;28;20481;-59
2022/06/20 01:51:59;;;;;;;14.82;5.15;;;18.10;99.90;;;18.51;65.94;101401.72;5113116;28;20069;-59
2022/06/20 01:54:32;;;;;;;10.77;4.22;;;18.10;99.90;;;18.58;65.45;101408.69;5113443;28;20049;-59
2022/06/20 01:57:04;;;;;;;13.10;4.03;;;18.10;99.90;;;18.64;65.36;101419.25;5113143;28;20082;-59
2022/06/20 01:59:39;;;;;;;8.93;3.95;;;18.20;99.90;;;18.67;65.35;101419.13;5113666;28;20126;-59
2022/06/20 02:02:08;;;;;;;11.20;4.22;;;18.20;99.90;;;18.62;65.20;101411.22;5113390;28;20058;-60
2022/06/20 02:04:37;;;;;;;10.45;4.15;;;18.20;99.90;;;18.61;64.93;101404.13;5113238;28;20043;-59
2022/06/20 02:07:10;;;;;;;17.42;4.53;;;18.20;99.90;;;18.62;64.69;101408.53;5113259;28;20071;-60
2022/06/20 02:09:40;;;;;;;8.30;3.90;;;18.20;99.90;;;18.64;64.45;101397.81;5113665;28;20047;-60
2022/06/20 02:12:11;;;;;;;9.93;4.32;;;18.20;99.90;;;18.63;64.26;101396.03;5113537;28;20047;-60
2022/06/20 02:14:48;;;;;;;9.75;4.07;;;18.20;99.90;;;18.59;64.19;101389.00;5113291;28;20040;-60
2022/06/20 02:17:23;;;;;;;11.90;4.22;;;18.20;99.90;;;18.66;63.53;101404.00;5113160;28;20522;-61
2022/06/20 02:19:55;;;;;;;9.70;3.85;;;18.20;99.90;;;18.55;63.29;101398.94;5095220;28;20104;-61
2022/06/20 02:22:26;;;;;;;11.30;3.83;;;18.20;99.90;;;18.52;63.44;101404.41;5113618;28;20067;-61
2022/06/20 02:25:02;;;;;;;13.35;4.50;;;18.10;99.90;;;18.59;63.29;101399.72;5114059;28;20101;-61
2022/06/20 02:27:37;;;;;;;13.60;3.92;;;18.20;99.90;;;18.55;63.24;101390.88;5113541;28;20044;-61
2022/06/20 02:30:09;;;;;;;9.23;3.97;;;18.20;99.90;;;18.51;63.39;101394.56;5113213;28;20070;-61
2022/06/20 02:32:42;;;;;;;10.77;4.20;;;18.10;99.90;;;18.49;63.00;101399.09;5112804;28;20098;-61
2022/06/20 02:35:14;;;;;;;9.10;4.28;;;18.10;99.90;;;18.45;63.03;101397.44;5112694;28;20451;-59
2022/06/20 02:37:43;;;;;;;10.45;4.38;;;18.00;99.90;;;18.36;63.14;101403.03;5112631;28;20043;-59
2022/06/20 02:40:16;;;;;;;8.65;3.42;;;18.00;99.90;;;18.36;63.28;101402.13;5112483;28;20482;-59
2022/06/20 02:42:49;;;;;;;11.88;4.40;;;17.90;99.90;;;18.38;63.04;101401.19;5112517;28;20044;-59
2022/06/20 02:45:22;;;;;;;10.05;3.88;;;17.90;99.90;;;18.39;62.87;101402.91;5112812;28;20035;-59
2022/06/20 02:47:57;;;;;;;9.48;4.38;;;18.00;99.90;;;18.32;62.66;101369.19;5112456;28;20043;-59
2022/06/20 02:50:32;;;;;;;9.05;3.78;;;18.00;99.90;;;18.46;62.64;101387.59;5112306;28;20100;-59
2022/06/20 02:53:05;;;;;;;7.25;3.75;;;18.00;99.90;;;18.40;62.13;101385.06;5112314;28;20078;-59
2022/06/20 02:55:36;;;;;;;11.05;3.92;;;18.00;99.90;;;18.34;62.47;101394.16;5112279;28;20120;-59
2022/06/20 02:58:12;;;;;;;8.38;3.95;;;18.00;99.90;;;18.32;62.42;101387.94;5112549;28;20050;-59
2022/06/20 03:00:50;;;;;;;9.00;4.15;;;17.90;99.90;;;18.30;62.53;101373.72;5112479;28;20101;-59
2022/06/20 03:03:25;;;;;;;10.43;4.18;;;17.90;99.90;;;18.40;62.37;101377.00;5112354;28;20071;-59
2022/06/20 03:05:54;;;;;;;8.18;4.07;;;18.00;99.90;;;18.31;62.54;101382.66;5112252;28;20134;-59
2022/06/20 03:08:23;;;;;;;12.00;4.25;;;17.90;99.90;;;18.23;63.07;101387.31;5112256;28;20135;-59
2022/06/20 03:10:54;;;;;;;12.68;4.47;;;17.90;99.90;;;17.92;63.42;101336.41;5112407;28;20596;-59
2022/06/20 03:13:24;;;;;;;7.75;3.65;;;17.80;99.90;;;18.27;63.08;101376.50;5112081;28;20081;-59
2022/06/20 03:15:54;;;;;;;10.10;4.03;;;17.90;99.90;;;18.20;63.12;101376.69;5112274;28;20044;-59
2022/06/20 03:18:24;;;;;;;8.57;4.05;;;17.90;99.90;;;18.04;63.56;101366.41;5111991;28;20102;-59
2022/06/20 03:20:52;;;;;;;9.10;3.95;;;17.70;99.90;;;18.15;63.54;101376.84;5112167;28;20100;-59
2022/06/20 03:23:25;;;;;;;10.13;4.38;;;17.70;99.90;;;18.24;63.16;101376.56;5112201;28;20464;-59
2022/06/20 03:25:56;;;;;;;7.55;3.92;;;17.80;99.90;;;18.07;63.43;101361.88;5112426;28;20146;-59
2022/06/20 03:28:25;;;;;;;10.32;3.72;;;17.80;99.90;;;18.15;63.93;101374.16;5115226;28;20438;-59
2022/06/20 03:31:06;;;;;;;8.82;3.65;;;17.80;99.90;;;18.09;64.23;101382.34;5116254;28;20051;-59
2022/06/20 03:33:35;;;;;;;12.40;3.80;;;17.70;99.90;;;18.11;64.25;101385.88;5097396;28;20044;-59
2022/06/20 03:36:09;;;;;;;8.82;3.80;;;17.70;99.90;;;17.86;64.51;101358.00;5115953;28;20062;-59
2022/06/20 03:38:40;;;;;;;13.68;4.47;;;17.60;99.90;;;18.02;64.60;101378.09;5115700;28;20039;-59
2022/06/20 03:41:10;;;;;;;13.60;4.75;;;17.60;99.90;;;18.03;64.60;101387.88;5115680;28;20047;-59
2022/06/20 03:43:40;;;;;;;10.27;4.03;;;17.60;99.90;;;18.01;64.71;101387.03;5115840;28;20073;-59
2022/06/20 03:46:18;;;;;;;21.08;5.03;;;17.60;99.90;;;18.03;64.15;101383.41;5116929;28;20043;-59
2022/06/20 03:48:56;;;;;;;13.68;4.10;;;17.60;99.90;;;17.89;65.02;101381.97;5116843;28;20071;-59
2022/06/20 03:51:30;;;;;;;13.95;4.40;;;17.50;99.90;;;17.84;65.52;101370.53;5098640;28;20492;-59
2022/06/20 03:54:06;;;;;;;11.73;4.40;;;17.40;99.90;;;18.02;65.03;101378.09;5098600;28;20051;-59
2022/06/20 03:56:43;;;;;;;13.27;4.50;;;17.50;99.90;;;17.94;64.68;101388.13;5116678;28;20428;-59
2022/06/20 03:59:17;;;;;;;9.85;4.60;;;17.50;99.90;;;18.00;64.79;101396.00;5116602;28;20442;-59
2022/06/20 04:01:57;;;;;;;16.15;4.60;;;17.50;99.90;;;17.87;64.77;101398.09;5116894;28;20183;-59
2022/06/20 04:04:31;;;;;;;9.05;4.32;;;17.50;99.90;;;17.95;65.26;101404.13;5116771;28;20071;-59
2022/06/20 04:07:05;;;;;;;13.77;5.00;;;17.50;99.90;;;18.00;64.95;101399.53;5116469;28;20043;-59
2022/06/20 04:12:32;;;;;;;10.45;4.50;;;17.50;99.90;;;18.04;65.01;101392.28;5116283;28;20131;-59
2022/06/20 04:15:10;;;;;;;13.70;4.30;;;17.60;99.90;;;18.06;65.19;101385.09;5116551;28;20051;-59
2022/06/20 04:20:40;;;;;;;11.20;4.13;;;17.60;99.90;;;17.91;64.51;101402.44;5115081;28;20154;-59
2022/06/20 04:23:15;;;;;;;9.40;4.20;;;17.50;99.90;;;17.99;64.62;101396.88;5114799;28;20043;-59
2022/06/20 04:25:50;;;;;;;11.75;4.10;;;17.50;99.90;;;17.87;64.40;101370.44;5114786;28;20039;-59
2022/06/20 04:28:27;;;;;;;13.48;4.60;;;17.60;99.90;;;18.03;64.45;101403.94;5114690;28;20074;-59
2022/06/20 04:31:02;;;;;;;13.32;5.35;;;17.60;99.90;;;17.55;63.70;101304.41;5114621;28;20096;-59
2022/06/20 04:33:36;;;;;;;10.18;4.65;;;17.80;99.90;;;18.14;64.20;101412.53;5114659;28;20048;-59
2022/06/20 04:36:22;;;;;;;9.77;4.65;;;17.70;99.90;;;18.12;63.73;101417.06;5114498;28;20062;-59
2022/06/20 04:38:58;;;;;;;12.77;4.63;;;17.70;99.90;;;18.15;64.06;101419.69;5113151;28;20055;-59
2022/06/20 04:41:36;;;;;;;11.38;4.40;;;17.70;99.90;;;18.21;64.16;101418.63;5096336;28;20044;-59
2022/06/20 04:44:16;;;;;;;11.07;4.45;;;17.80;99.90;;;17.58;64.04;101303.41;5114987;28;20101;-59
2022/06/20 04:46:52;;;;;;;12.25;5.13;;;17.80;99.90;;;18.21;64.15;101410.59;5114738;28;20134;-59
2022/06/20 04:49:22;;;;;;;9.70;4.70;;;17.80;99.90;;;18.29;64.20;101412.13;5114484;28;20040;-59
2022/06/20 04:51:52;;;;;;;8.53;4.40;;;17.90;99.90;;;18.37;64.26;101412.81;5114618;28;20075;-59
2022/06/20 04:54:22;;;;;;;9.80;4.75;;;17.90;99.90;;;18.46;63.85;101419.75;5114596;28;20282;-59
2022/06/20 04:56:55;;;;;;;12.18;4.90;;;18.00;99.90;;;18.39;63.35;101415.47;5114598;28;20056;-59
2022/06/20 04:59:29;;;;;;;10.95;5.20;;;18.00;99.90;;;18.43;63.65;101412.66;5114342;28;20466;-59
2022/06/20 05:02:00;;;;;;;11.65;4.82;;;18.10;99.90;;;18.52;62.95;101409.75;5114683;28;20071;-59
2022/06/20 05:04:33;;;;;;;11.50;5.05;;;18.10;99.90;;;18.43;63.92;101426.06;5097401;28;20067;-59
2022/06/20 05:07:07;;;;;;;11.18;5.43;;;18.00;99.90;;;18.42;64.16;101410.00;5115244;28;20489;-59
2022/06/20 05:09:44;;;;;;;13.00;5.32;;;18.10;99.90;;;18.15;63.55;101362.56;5115215;28;20515;-59
2022/06/20 05:12:19;;;;;;;16.52;5.50;;;18.20;99.90;;;18.66;63.60;101438.84;5115373;28;20067;-59
2022/06/20 05:14:55;;;;;;;10.98;4.82;;;18.30;99.90;;;18.66;63.27;101428.13;5115190;28;20074;-59
2022/06/20 05:17:28;;;;;;;13.73;5.20;;;18.30;99.90;;;18.48;63.53;101423.25;5115216;28;20063;-59
2022/06/20 05:20:02;;;;;;;15.32;5.30;;;18.20;99.90;;;18.60;63.51;101429.13;5115240;28;20401;-59
2022/06/20 05:22:35;;;;;;;13.43;4.95;;;18.20;99.90;;;18.57;63.19;101433.72;5114996;28;20039;-59
2022/06/20 05:25:09;;;;;;;13.73;4.97;;;18.20;99.90;;;18.65;63.12;101439.75;5115060;28;20039;-59
2022/06/20 05:27:45;;;;;;;11.02;4.78;;;18.30;99.90;;;18.73;62.85;101445.78;5114266;28;20040;-59
2022/06/20 05:30:19;;;;;;;11.13;5.00;;;18.30;99.90;;;18.80;62.88;101445.53;5113846;28;20130;-59
2022/06/20 05:32:53;;;;;;;13.70;5.13;;;18.40;99.90;;;18.86;62.75;101447.16;5113967;28;20195;-59
2022/06/20 05:35:26;;;;;;;15.13;5.40;;;18.50;99.90;;;19.02;62.23;101445.81;5113939;28;20047;-59
2022/06/20 05:37:59;;;;;;;15.38;5.75;;;18.60;99.90;;;19.01;62.36;101451.22;5113541;28;20115;-59
2022/06/20 05:40:33;;;;;;;13.60;5.10;;;18.60;99.90;;;19.12;62.20;101449.09;5113364;28;20086;-59
2022/06/20 05:43:02;;;;;;;12.00;5.00;;;18.70;99.90;;;19.09;61.94;101486.69;5095250;28;20465;-59
2022/06/20 05:45:31;;;;;;;16.90;5.80;;;18.90;99.90;;;19.24;60.65;101452.25;5113554;28;20054;-59
2022/06/20 05:48:03;;;;;;;13.18;5.93;;;18.90;99.90;;;19.20;60.81;101457.78;5113285;28;20093;-60
2022/06/20 05:50:42;;;;;;;12.02;5.75;;;18.90;99.90;;;19.23;60.32;101460.34;5113001;28;20079;-60
2022/06/20 05:53:24;;;;;;;11.75;5.15;;;19.00;99.90;;;19.32;59.87;101460.06;5113284;28;20156;-60
2022/06/20 05:55:58;;;;;;;13.85;5.65;;;19.00;99.90;;;19.17;60.35;101441.75;5113239;28;20040;-60
2022/06/20 05:58:36;;;;;;;12.00;4.90;;;19.00;99.90;;;19.32;59.98;101465.44;5113228;28;20435;-60
2022/06/20 06:01:08;;;;;;;13.63;4.97;;;19.00;99.90;;;19.06;59.91;101471.59;5113081;28;20392;-60
2022/06/20 06:03:44;;;;;;;11.43;5.63;;;18.90;99.90;;;18.96;60.72;101471.91;5113724;28;20052;-60
2022/06/20 06:06:22;;;;;;;20.73;6.28;;;18.70;99.90;;;18.61;61.45;101468.44;5113047;28;20537;-60
2022/06/20 06:08:56;;;;;;;14.45;6.22;;;18.40;99.90;;;18.59;62.22;101480.09;5113282;28;20114;-60
2022/06/20 06:11:30;;;;;;;13.93;5.85;;;18.30;99.90;;;18.47;62.92;101481.31;5094868;28;20063;-60
2022/06/20 06:14:06;;;;;;;14.98;6.28;;;18.20;99.90;;;18.23;63.97;101486.44;5112990;28;20070;-61
2022/06/20 06:16:49;;;;;;;16.20;6.22;;;18.00;99.90;;;18.45;64.09;101498.34;5112900;28;20074;-60
2022/06/20 06:19:31;;;;;;;13.05;6.13;;;18.10;99.90;;;18.28;64.08;101493.41;5113179;28;20461;-60
2022/06/20 06:22:05;;;;;;;15.88;5.72;;;18.00;99.90;;;18.34;63.62;101495.06;5112724;28;20063;-60
2022/06/20 06:24:40;;;;;;;18.33;5.95;;;18.00;99.90;;;18.50;63.06;101497.34;5112606;28;20063;-60
2022/06/20 06:27:12;;;;;;;17.98;6.15;;;18.20;99.90;;;18.30;63.01;101491.56;5112637;28;20184;-60
2022/06/20 06:29:47;;;;;;;14.77;6.00;;;18.10;99.90;;;18.49;63.47;101492.00;5112938;28;20043;-60
2022/06/20 06:32:20;;;;;;;15.98;6.15;;;18.10;99.90;;;18.64;63.13;101497.81;5112944;28;20048;-60
2022/06/20 06:34:55;;;;;;;15.50;5.45;;;18.30;99.90;;;18.80;62.46;101501.84;5112503;28;20039;-60
2022/06/20 06:37:31;;;;;;;15.02;5.88;;;18.50;99.90;;;18.90;62.00;101513.19;5112373;28;20155;-60
2022/06/20 06:40:06;;;;;;;17.30;6.10;;;18.60;99.90;;;18.95;61.10;101483.56;5112594;28;20108;-60
2022/06/20 06:42:35;;;;;;;15.68;5.65;;;18.70;99.90;;;19.18;60.11;101513.28;5112696;28;20043;-60
2022/06/20 06:45:08;;;;;;;11.23;5.45;;;18.90;99.90;;;19.27;59.86;101502.25;5112366;28;20046;-60
2022/06/20 06:47:41;;;;;;;9.98;5.15;;;19.00;99.90;;;19.46;59.25;101519.59;5112438;28;20400;-60
2022/06/20 06:50:23;;;;;;;12.20;5.00;;;19.10;99.90;;;19.59;58.87;101518.28;5112728;28;20043;-60
2022/06/20 06:53:00;;;;;;;12.98;5.20;;;19.20;99.90;;;19.65;58.91;101520.78;5112721;28;20458;-60
2022/06/20 06:55:35;;;;;;;14.02;5.15;;;19.30;99.90;;;19.73;58.48;101519.63;5112809;28;20446;-60
2022/06/20 06:58:15;;;;;;;9.20;4.75;;;19.40;99.90;;;19.76;57.59;101519.50;5112365;28;20435;-60
2022/06/20 07:00:48;;;;;;;12.77;4.82;;;19.40;99.90;;;19.76;57.69;101519.50;5112653;28;20040;-60
2022/06/20 07:03:21;;;;;;;8.77;4.65;;;19.50;99.90;;;19.74;57.49;101515.16;5115254;28;20434;-60
2022/06/20 07:05:56;;;;;;;10.63;4.70;;;19.50;99.90;;;19.76;56.46;101521.34;5116147;28;20111;-59
2022/06/20 07:08:54;;;;;;;16.00;5.68;;;19.50;99.90;;;19.75;56.07;101512.41;5116634;28;20043;-59
2022/06/20 07:11:26;;;;;;;14.50;5.18;;;19.40;99.90;;;19.67;57.20;101525.19;5116696;28;20176;-59
2022/06/20 07:14:05;;;;;;;12.38;5.25;;;19.30;99.90;;;19.65;57.13;101527.03;5116198;28;20071;-60
2022/06/20 07:16:41;;;;;;;9.70;4.60;;;19.30;99.90;;;19.69;56.94;101525.13;5115961;28;20039;-59
2022/06/20 07:19:13;;;;;;;13.93;5.00;;;19.40;99.90;;;19.82;57.55;101533.69;5097354;28;20489;-59
2022/06/20 07:21:43;;;;;;;18.13;5.25;;;19.50;99.90;;;19.59;57.50;101526.34;5116023;28;20055;-59
2022/06/20 07:24:19;;;;;;;14.27;5.15;;;19.30;99.90;;;19.23;59.47;101519.38;5115892;28;20047;-59
2022/06/20 07:26:55;;;;;;;15.75;6.15;;;19.00;99.90;;;19.27;58.70;101529.97;5115933;28;20043;-59
2022/06/20 07:29:28;;;;;;;15.32;5.95;;;19.00;99.90;;;19.17;58.81;101507.03;5115730;28;20096;-59
2022/06/20 07:32:00;;;;;;;13.43;5.45;;;19.00;99.90;;;19.35;58.89;101533.34;5115985;28;20047;-59
2022/06/20 07:34:35;;;;;;;18.58;5.57;;;19.00;99.90;;;19.45;58.81;101528.59;5097284;28;20075;-59
2022/06/20 07:37:12;;;;;;;13.15;5.53;;;19.10;99.90;;;19.35;59.54;101538.72;5115957;28;20108;-59
2022/06/20 07:39:49;;;;;;;14.82;5.88;;;19.10;99.90;;;19.22;59.19;101539.09;5115582;28;20069;-59
2022/06/20 07:42:24;;;;;;;13.27;5.88;;;19.00;99.90;;;19.33;58.95;101535.19;5116166;28;20506;-59
2022/06/20 07:44:59;;;;;;;14.75;5.35;;;19.10;99.90;;;18.81;60.27;101535.75;5115540;28;20079;-59
2022/06/20 07:47:34;;;;;;;12.35;5.18;;;18.70;99.90;;;19.28;59.16;101537.09;5115737;28;20105;-59
2022/06/20 07:50:08;;;;;;;8.98;5.30;;;18.90;99.90;;;19.41;58.48;101549.28;5115746;28;20043;-59
2022/06/20 07:52:42;;;;;;;11.82;4.97;;;19.00;99.90;;;19.52;57.23;101541.78;5115525;28;20126;-59
2022/06/20 07:55:17;;;;;;;18.70;5.05;;;19.20;99.90;;;19.53;56.60;101542.66;5115528;28;20199;-59
2022/06/20 07:57:51;;;;;;;11.52;5.18;;;19.30;99.90;;;19.60;57.36;101549.59;5115468;28;20035;-59
2022/06/20 08:00:23;;;;;;;12.25;5.30;;;19.20;99.90;;;19.78;56.81;101549.03;5115543;28;20082;-59
2022/06/20 08:02:56;;;;;;;10.20;4.53;;;19.40;99.90;;;19.91;55.99;101550.38;5115638;28;20114;-60
2022/06/20 08:05:28;;;;;;;15.50;5.30;;;19.60;99.90;;;19.86;55.40;101536.22;5115499;28;20040;-60
2022/06/20 08:08:05;;;;;;;13.00;4.68;;;19.70;99.90;;;20.13;56.50;101551.44;5115684;28;20451;-60
2022/06/20 08:10:39;;;;;;;9.85;4.28;;;19.80;99.90;;;20.23;55.87;101541.28;5115576;28;20054;-60
2022/06/20 08:13:14;;;;;;;14.52;4.63;;;19.90;99.90;;;20.41;54.13;101533.50;5115919;28;20074;-60
2022/06/20 08:15:53;;;;;;;12.27;4.43;;;20.10;99.90;;;20.43;54.55;101549.59;5115626;28;20043;-60
2022/06/20 08:18:22;;;;;;;11.68;4.72;;;20.10;99.90;;;20.61;53.80;101555.19;5115455;28;20108;-59
2022/06/20 08:20:56;;;;;;;15.13;5.05;;;20.30;99.90;;;20.61;52.93;101528.31;5115713;28;20411;-60
2022/06/20 08:23:32;;;;;;;9.50;5.20;;;20.40;99.90;;;20.89;53.62;101544.34;5115963;28;20059;-59
2022/06/20 08:26:08;;;;;;;14.32;5.32;;;20.60;99.90;;;21.02;53.51;101561.81;5115637;28;20122;-60
2022/06/20 08:28:46;;;;;;;12.68;5.32;;;20.70;99.90;;;21.15;52.79;101555.09;5115346;28;20055;-59
2022/06/20 08:31:21;;;;;;;13.00;5.25;;;20.90;99.90;;;21.12;51.59;101557.88;5096877;28;20044;-59
2022/06/20 08:33:56;;;;;;;12.30;4.80;;;20.90;99.90;;;21.26;52.53;101557.34;5114843;28;20045;-59
2022/06/20 08:36:35;;;;;;;11.75;4.60;;;20.90;99.90;;;20.94;51.81;101553.16;5115148;28;20066;-59
2022/06/20 08:39:18;;;;;;;10.93;4.35;;;20.90;99.90;;;20.11;53.73;101547.06;5115625;28;20036;-59
2022/06/20 08:42:19;;;;;;;11.15;5.03;;;20.10;99.90;;;20.10;53.44;101570.34;5096690;28;20458;-59
2022/06/20 08:45:27;;;;;;;11.48;5.07;;;19.80;99.90;;;20.32;53.97;101563.41;5115381;28;20047;-59
2022/06/20 08:48:36;;;;;;;12.20;5.00;;;20.00;99.90;;;20.14;54.28;101566.66;5114630;28;20075;-59
2022/06/20 08:52:08;;;;;;;12.68;5.30;;;19.90;99.90;;;20.63;53.60;101568.59;5114598;28;20078;-60
2022/06/20 08:55:22;;;;;;;10.60;5.32;;;20.20;99.90;;;21.05;51.18;101580.56;5111886;28;20086;-59
2022/06/20 08:58:03;;;;;;;7.60;4.50;;;20.70;99.90;;;21.29;50.44;101579.66;5114273;28;20044;-59
2022/06/20 09:00:47;;;;;;;12.45;4.65;;;20.90;99.90;;;21.55;50.24;101578.69;5114845;28;20088;-59
2022/06/20 09:03:56;;;;;;;11.23;4.90;;;21.20;99.90;;;21.85;50.72;101590.13;5114265;28;20039;-59
2022/06/20 09:06:55;;;;;;;11.52;4.32;;;21.50;99.90;;;21.82;49.39;101587.53;5114247;28;20040;-59
2022/06/20 09:09:56;;;;;;;10.93;4.55;;;21.60;99.90;;;21.74;49.87;101606.66;5114003;28;20047;-60
2022/06/20 09:12:39;;;;;;;;;;;21.50;99.90;;;22.00;49.24;101595.78;5096224;28;20083;-59
2022/06/20 09:15:30;;;;;;;9.57;4.55;;;21.80;99.90;;;22.09;48.50;101591.81;5113832;28;19959;-59
2022/06/20 09:18:03;;;;;;;;;;;21.90;99.90;;;22.20;49.14;101593.16;5114167;28;20126;-60
2022/06/20 09:20:39;;;;;;;12.20;4.80;;;22.00;99.90;;;21.80;49.28;101603.75;5113820;28;19919;-61
2022/06/20 09:23:27;;;;;;;13.73;5.00;;;21.70;99.90;;;21.27;50.78;101594.13;5114079;28;20051;-61
2022/06/20 09:26:04;;;;;;;15.68;5.35;;;21.10;99.90;;;20.75;51.84;101596.88;5112924;28;20139;-63
2022/06/20 09:29:08;;;;;;;20.08;5.63;;;20.50;99.90;;;21.16;51.29;101613.34;5095440;28;20412;-60
2022/06/20 09:32:12;;;;;;;18.92;6.03;;;20.70;99.90;;;21.38;50.92;101599.97;5104302;28;20134;-60
2022/06/20 09:35:20;;;;;;;14.02;5.70;;;21.00;99.90;;;21.47;51.17;101607.69;5113623;28;20123;-60
2022/06/20 09:38:44;;;;;;;17.55;5.72;;;21.10;99.90;;;21.63;50.89;101592.72;5112551;28;20055;-60
2022/06/20 09:41:23;;;;;;;19.63;5.93;;;21.30;99.90;;;21.74;50.97;101603.97;5030543;28;20123;-61
2022/06/20 09:44:05;;;;;;;12.93;5.10;;;21.40;99.90;;;21.80;49.71;101605.53;5106569;28;20058;-60
2022/06/20 09:46:48;;;;;;;15.57;5.90;;;21.50;99.90;;;22.05;50.09;101596.47;5113278;28;20097;-60
2022/06/20 09:49:47;;;;;;;14.15;4.88;;;21.70;99.90;;;22.13;49.75;101607.81;5113561;28;20147;-61
2022/06/20 09:52:33;;;;;;;13.18;5.65;;;21.90;99.90;;;22.24;48.21;101604.72;5113274;28;20040;-61
2022/06/20 09:55:12;;;;;;;16.50;4.97;;;21.90;99.90;;;22.35;48.78;101610.53;5094903;28;20139;-60
2022/06/20 09:57:50;;;;;;;13.03;5.47;;;22.10;99.90;;;22.50;48.93;101614.41;5113184;28;20378;-61
2022/06/20 10:00:22;;;;;;;12.90;5.18;;;22.20;99.90;;;22.73;48.33;101611.63;5095174;28;20297;-60
2022/06/20 10:03:05;;;;;;;12.38;5.10;;;22.40;99.90;;;22.30;47.92;101613.41;5112876;28;20035;-60
2022/06/20 10:05:43;;;;;;;20.25;5.57;;;22.10;99.90;;;22.59;47.60;101616.75;5094761;28;20146;-61
2022/06/20 10:08:27;;;;;;;15.57;4.40;;;22.30;99.90;;;22.76;47.94;101623.22;5112857;28;20039;-61
2022/06/20 10:11:01;;;;;;;16.65;5.10;;;22.40;99.90;;;22.81;46.15;101628.38;5112907;28;20538;-61
2022/06/20 10:13:39;;;;;;;11.88;5.13;;;22.50;99.90;;;22.99;47.66;101633.00;5112742;28;20396;-60
2022/06/20 10:16:17;;;;;;;12.98;5.30;;;22.70;99.90;;;22.50;47.57;101635.97;5112626;28;20058;-61
2022/06/20 10:18:59;;;;;;;12.27;4.63;;;22.30;99.90;;;22.52;47.14;101634.09;5112966;28;20058;-61
2022/06/20 10:21:37;;;;;;;13.52;5.43;;;22.30;99.90;;;22.08;48.61;101638.59;5112634;28;20073;-61
2022/06/20 10:24:45;;;;;;;15.85;6.13;;;21.90;99.90;;;22.16;47.03;101637.34;5113179;28;20047;-60
2022/06/20 10:27:35;;;;;;;15.73;5.15;;;21.80;99.90;;;22.01;47.48;101640.63;5109663;28;20039;-60
2022/06/20 10:30:13;;;;;;;11.73;5.45;;;21.80;99.90;;;22.14;48.33;101638.34;5094411;28;20497;-59
2022/06/20 10:32:56;;;;;;;13.75;5.43;;;21.80;99.90;;;22.16;49.12;101623.84;5112839;28;20066;-60
2022/06/20 10:35:45;;;;;;;12.52;5.22;;;21.90;99.90;;;22.39;48.67;101647.22;5094179;28;20142;-60
2022/06/20 10:38:25;;;;;;;12.45;5.07;;;22.10;99.90;;;22.41;47.68;101653.44;5112367;28;20481;-60
2022/06/20 10:41:07;;;;;;;13.20;5.65;;;22.20;99.90;;;22.42;47.01;101661.44;5112439;28;20035;-60
2022/06/20 10:43:47;;;;;;;11.57;5.00;;;22.30;99.90;;;21.86;47.32;101662.78;5112482;28;20123;-60
2022/06/20 10:46:26;;;;;;;11.05;4.63;;;21.90;99.90;;;20.68;50.89;101664.31;5112915;28;20051;-60
2022/06/20 10:49:31;;;;;;;11.60;5.03;;;20.80;99.90;;;20.71;50.79;101588.03;5112609;28;20063;-61
2022/06/20 10:52:17;;;;;;;13.32;5.50;;;20.70;99.90;;;21.46;51.05;101675.97;5112577;28;20042;-60
2022/06/20 10:55:07;;;;;;;12.90;5.28;;;21.00;99.90;;;21.55;50.07;101676.50;5112510;28;20116;-59
2022/06/20 10:57:51;;;;;;;15.30;5.38;;;21.30;99.90;;;21.31;49.79;101671.13;5112340;28;20035;-59
2022/06/20 11:00:22;;;;;;;12.02;5.38;;;21.10;99.90;;;20.91;50.28;101671.59;5112490;28;20043;-60